createdAt,value
2018-06-12T00:00:10.760Z,58.04
2018-06-12T00:02:37.042Z,58.20
2018-06-12T00:05:03.336Z,57.86
2018-06-12T00:07:29.633Z,57.37
2018-06-12T00:09:55.928Z,56.28
2018-06-12T00:12:22.229Z,55.91
2018-06-12T00:14:48.519Z,54.59
2018-06-12T00:17:14.810Z,55.02
2018-06-12T00:19:41.102Z,55.83
2018-06-12T00:22:07.400Z,56.27
2018-06-12T00:24:33.737Z,56.21
2018-06-12T00:27:00.023Z,56.71
2018-06-12T00:29:26.319Z,57.03
2018-06-12T00:31:52.611Z,57.03
2018-06-12T00:34:18.952Z,57.11
2018-06-12T00:36:45.275Z,57.24
2018-06-12T00:39:11.598Z,57.08
2018-06-12T00:41:37.938Z,57.25
2018-06-12T00:44:04.259Z,57.44
2018-06-12T00:46:30.542Z,57.48
2018-06-12T00:48:56.836Z,57.47
2018-06-12T00:51:23.118Z,57.42
2018-06-12T00:53:49.418Z,57.47
2018-06-12T00:56:15.748Z,56.57
2018-06-12T00:58:42.041Z,56.57
2018-06-12T01:01:08.374Z,57.13
2018-06-12T01:03:34.669Z,56.69
2018-06-12T01:06:01.016Z,56.71
2018-06-12T01:08:27.304Z,56.56
2018-06-12T01:10:53.591Z,56.19
2018-06-12T01:13:19.882Z,56.52
2018-06-12T01:15:46.176Z,56.23
2018-06-12T01:18:12.464Z,56.58
2018-06-12T01:20:38.798Z,56.65
2018-06-12T01:23:05.114Z,56.76
2018-06-12T01:25:31.424Z,56.89
2018-06-12T01:27:57.718Z,56.50
2018-06-12T01:30:24.048Z,56.88
2018-06-12T01:32:50.377Z,57.05
2018-06-12T01:35:16.664Z,57.12
2018-06-12T01:37:42.997Z,57.13
2018-06-12T01:40:09.330Z,57.20
2018-06-12T01:42:35.622Z,56.95
2018-06-12T01:45:01.916Z,57.30
2018-06-12T01:47:28.203Z,57.27
2018-06-12T01:49:54.545Z,57.15
2018-06-12T01:52:20.836Z,57.08
2018-06-12T01:54:47.134Z,57.05
2018-06-12T01:57:13.424Z,57.11
2018-06-12T01:59:39.722Z,56.92
2018-06-12T02:02:06.024Z,56.08
2018-06-12T02:04:32.310Z,55.41
2018-06-12T02:06:58.608Z,55.38
2018-06-12T02:09:24.893Z,54.97
2018-06-12T02:11:51.184Z,54.98
2018-06-12T02:14:17.475Z,55.62
2018-06-12T02:16:43.767Z,55.74
2018-06-12T02:19:10.070Z,55.48
2018-06-12T02:21:36.368Z,55.59
2018-06-12T02:24:02.664Z,55.68
2018-06-12T02:26:28.958Z,55.98
2018-06-12T02:28:55.262Z,56.21
2018-06-12T02:31:21.547Z,56.50
2018-06-12T02:33:47.841Z,56.54
2018-06-12T02:36:14.127Z,56.69
2018-06-12T02:38:40.414Z,56.84
2018-06-12T02:41:06.745Z,56.77
2018-06-12T02:43:33.111Z,56.68
2018-06-12T02:45:59.396Z,56.54
2018-06-12T02:48:25.684Z,56.94
2018-06-12T02:50:52.024Z,57.04
2018-06-12T02:53:18.311Z,57.23
2018-06-12T02:55:44.605Z,57.52
2018-06-12T02:58:10.949Z,57.67
2018-06-12T03:00:37.248Z,57.89
2018-06-12T03:03:03.536Z,58.05
2018-06-12T03:05:29.840Z,58.36
2018-06-12T03:07:56.129Z,58.68
2018-06-12T03:10:22.427Z,59.10
2018-06-12T03:12:48.719Z,59.50
2018-06-12T03:15:15.010Z,59.63
2018-06-12T03:17:41.296Z,59.68
2018-06-12T03:20:07.623Z,59.81
2018-06-12T03:22:33.944Z,59.97
2018-06-12T03:25:00.243Z,60.11
2018-06-12T03:27:26.585Z,60.09
2018-06-12T03:29:52.870Z,60.12
2018-06-12T03:32:19.160Z,60.10
2018-06-12T03:34:45.451Z,60.42
2018-06-12T03:37:11.742Z,60.48
2018-06-12T03:39:38.039Z,60.67
2018-06-12T03:42:04.324Z,60.71
2018-06-12T03:44:30.611Z,60.77
2018-06-12T03:46:56.907Z,60.76
2018-06-12T03:49:23.190Z,60.91
2018-06-12T03:51:49.486Z,60.97
2018-06-12T03:54:15.772Z,60.91
2018-06-12T03:56:42.065Z,60.85
2018-06-12T03:59:08.416Z,60.90
2018-06-12T04:01:34.709Z,60.78
2018-06-12T04:04:00.994Z,61.01
2018-06-12T04:06:27.283Z,61.61
2018-06-12T04:08:53.620Z,61.49
2018-06-12T04:11:19.907Z,61.04
2018-06-12T04:13:46.194Z,60.69
2018-06-12T04:16:12.487Z,60.51
2018-06-12T04:18:38.776Z,60.43
2018-06-12T04:21:05.076Z,60.45
2018-06-12T04:23:31.370Z,59.96
2018-06-12T04:25:57.673Z,59.86
2018-06-12T04:28:23.964Z,59.83
2018-06-12T04:30:50.260Z,60.02
2018-06-12T04:33:16.562Z,60.01
2018-06-12T04:35:42.850Z,59.43
2018-06-12T04:38:09.148Z,59.20
2018-06-12T04:40:35.435Z,72.52
2018-06-12T04:43:01.733Z,82.68
2018-06-12T04:45:28.025Z,86.60
2018-06-12T04:47:54.316Z,88.80
2018-06-12T04:50:20.616Z,90.00
2018-06-12T04:52:46.904Z,88.41
2018-06-12T04:55:13.198Z,88.66
2018-06-12T04:57:39.494Z,87.72
2018-06-12T05:00:05.792Z,84.96
2018-06-12T05:02:32.130Z,84.75
2018-06-12T05:04:58.481Z,84.16
2018-06-12T05:07:24.819Z,82.41
2018-06-12T05:09:51.108Z,80.31
2018-06-12T05:12:17.470Z,78.23
2018-06-12T05:14:43.800Z,76.62
2018-06-12T05:17:10.127Z,73.40
2018-06-12T05:19:36.459Z,71.20
2018-06-12T05:22:02.749Z,71.05
2018-06-12T05:24:29.075Z,69.77
2018-06-12T05:26:55.417Z,70.15
2018-06-12T05:29:21.721Z,69.74
2018-06-12T05:31:48.008Z,69.91
2018-06-12T05:34:14.294Z,70.62
2018-06-12T05:36:40.628Z,70.28
2018-06-12T05:39:06.923Z,69.66
2018-06-12T05:41:33.211Z,68.42
2018-06-12T05:43:59.509Z,68.15
2018-06-12T05:46:25.831Z,69.82
2018-06-12T05:48:52.116Z,69.67
2018-06-12T05:51:18.454Z,69.63
2018-06-12T05:53:44.754Z,69.00
2018-06-12T05:56:11.056Z,69.65
2018-06-12T05:58:37.385Z,68.04
2018-06-12T06:01:03.686Z,67.49
2018-06-12T06:03:29.974Z,67.65
2018-06-12T06:05:56.300Z,67.66
2018-06-12T06:08:22.590Z,66.19
2018-06-12T06:10:48.915Z,66.01
2018-06-12T06:13:15.208Z,65.22
2018-06-12T06:15:41.498Z,66.12
2018-06-12T06:18:07.799Z,65.59
2018-06-12T06:20:34.137Z,65.32
2018-06-12T06:23:00.424Z,64.12
2018-06-12T06:25:26.712Z,63.57
2018-06-12T06:27:53.075Z,63.27
2018-06-12T06:30:19.364Z,62.76
2018-06-12T06:32:45.684Z,63.65
2018-06-12T06:35:11.958Z,63.12
2018-06-12T06:37:38.252Z,61.64
2018-06-12T06:40:04.540Z,61.02
2018-06-12T06:42:30.831Z,61.95
2018-06-12T06:44:57.165Z,62.19
2018-06-12T06:47:23.467Z,61.42
2018-06-12T06:49:49.755Z,59.18
2018-06-12T06:52:16.048Z,57.73
2018-06-12T06:54:42.399Z,58.20
2018-06-12T06:57:08.729Z,58.05
2018-06-12T06:59:35.009Z,57.39
2018-06-12T07:02:01.291Z,56.91
2018-06-12T07:04:27.578Z,57.78
2018-06-12T07:06:53.868Z,57.64
2018-06-12T07:09:20.160Z,56.58
2018-06-12T07:11:46.449Z,55.87
2018-06-12T07:14:12.741Z,55.17
2018-06-12T07:16:39.033Z,55.32
2018-06-12T07:19:05.325Z,53.93
2018-06-12T07:21:31.620Z,53.33
2018-06-12T07:23:57.936Z,53.64
2018-06-12T07:26:24.230Z,53.47
2018-06-12T07:28:50.527Z,53.56
2018-06-12T07:31:16.863Z,53.67
2018-06-12T07:33:43.150Z,52.73
2018-06-12T07:36:09.447Z,51.68
2018-06-12T07:38:35.749Z,52.25
2018-06-12T07:41:02.045Z,53.33
2018-06-12T07:43:28.423Z,53.80
2018-06-12T07:45:54.708Z,54.38
2018-06-12T07:48:21.035Z,53.60
2018-06-12T07:50:47.414Z,52.61
2018-06-12T07:53:13.707Z,50.13
2018-06-12T07:55:40.058Z,50.27
2018-06-12T07:58:06.352Z,52.34
2018-06-12T08:00:32.649Z,52.38
2018-06-12T08:02:59.039Z,51.63
2018-06-12T08:05:25.338Z,50.10
2018-06-12T08:07:51.675Z,49.54
2018-06-12T08:10:18.012Z,50.04
2018-06-12T08:12:44.338Z,51.32
2018-06-12T08:15:10.605Z,50.31
2018-06-12T08:17:36.890Z,48.50
2018-06-12T08:20:03.186Z,48.69
2018-06-12T08:22:29.523Z,48.71
2018-06-12T08:24:55.807Z,48.54
2018-06-12T08:27:22.136Z,48.62
2018-06-12T08:29:48.461Z,49.64
2018-06-12T08:32:14.730Z,49.53
2018-06-12T08:34:41.033Z,49.40
2018-06-12T08:37:07.322Z,48.54
2018-06-12T08:39:33.607Z,47.78
2018-06-12T08:41:59.959Z,47.52
2018-06-12T08:44:26.300Z,47.88
2018-06-12T08:46:52.586Z,48.01
2018-06-12T08:49:18.915Z,48.40
2018-06-12T08:51:45.203Z,48.51
2018-06-12T08:54:11.492Z,48.30
2018-06-12T08:56:37.822Z,48.41
2018-06-12T08:59:04.106Z,47.23
2018-06-12T09:01:30.434Z,47.10
2018-06-12T09:03:56.724Z,47.38
2018-06-12T09:06:23.072Z,47.33
2018-06-12T09:08:49.358Z,46.67
2018-06-12T09:11:15.644Z,46.59
2018-06-12T09:13:41.938Z,46.38
2018-06-12T09:16:08.228Z,45.83
2018-06-12T09:18:34.519Z,46.56
2018-06-12T09:21:00.809Z,47.17
2018-06-12T09:23:27.099Z,46.28
2018-06-12T09:25:53.388Z,46.57
2018-06-12T09:28:19.676Z,46.07
2018-06-12T09:30:45.969Z,45.47
2018-06-12T09:33:12.265Z,45.53
2018-06-12T09:35:38.550Z,44.85
2018-06-12T09:38:04.846Z,44.78
2018-06-12T09:40:31.135Z,44.67
2018-06-12T09:42:57.430Z,44.62
2018-06-12T09:45:23.722Z,43.83
2018-06-12T09:47:50.014Z,43.41
2018-06-12T09:50:16.299Z,42.83
2018-06-12T09:52:42.599Z,43.55
2018-06-12T09:55:08.879Z,43.44
2018-06-12T09:57:35.190Z,43.30
2018-06-12T10:00:01.490Z,42.93
2018-06-12T10:02:27.820Z,43.21
2018-06-12T10:04:54.103Z,42.72
2018-06-12T10:07:20.434Z,43.76
2018-06-12T10:09:46.770Z,42.91
2018-06-12T10:12:13.051Z,43.04
2018-06-12T10:14:39.347Z,42.55
2018-06-12T10:17:05.677Z,41.78
2018-06-12T10:19:31.968Z,41.89
2018-06-12T10:21:58.304Z,41.09
2018-06-12T10:24:24.627Z,40.77
2018-06-12T10:26:50.916Z,40.00
2018-06-12T10:29:17.211Z,40.54
2018-06-12T10:31:43.504Z,40.57
2018-06-12T10:34:09.795Z,40.60
2018-06-12T10:36:36.143Z,40.54
2018-06-12T10:39:02.431Z,40.30
2018-06-12T10:41:28.717Z,40.19
2018-06-12T10:43:55.007Z,40.94
2018-06-12T10:46:21.305Z,39.64
2018-06-12T10:48:47.592Z,39.59
2018-06-12T10:51:13.879Z,39.85
2018-06-12T10:53:40.165Z,39.59
2018-06-12T10:56:06.458Z,40.01
2018-06-12T10:58:32.748Z,39.62
2018-06-12T11:00:59.044Z,40.11
2018-06-12T11:03:25.342Z,39.99
2018-06-12T11:05:51.631Z,39.73
2018-06-12T11:08:17.920Z,39.26
2018-06-12T11:10:44.228Z,39.24
2018-06-12T11:13:10.510Z,39.14
2018-06-12T11:15:36.800Z,39.25
2018-06-12T11:18:03.100Z,38.46
2018-06-12T11:20:29.381Z,38.53
2018-06-12T11:22:55.671Z,38.17
2018-06-12T11:25:21.969Z,37.88
2018-06-12T11:27:48.261Z,37.71
2018-06-12T11:30:14.653Z,37.77
2018-06-12T11:32:40.898Z,39.01
2018-06-12T11:35:07.196Z,38.45
2018-06-12T11:37:33.484Z,39.05
2018-06-12T11:39:59.775Z,39.11
2018-06-12T11:42:26.111Z,39.27
2018-06-12T11:44:52.400Z,38.70
2018-06-12T11:47:18.696Z,39.22
2018-06-12T11:49:44.992Z,39.41
2018-06-12T11:52:11.284Z,39.87
2018-06-12T11:54:37.582Z,39.78
2018-06-12T11:57:03.911Z,39.96
2018-06-12T11:59:30.198Z,40.11
2018-06-12T12:01:56.487Z,39.98
2018-06-12T12:04:22.781Z,40.04
2018-06-12T12:06:49.071Z,39.54
2018-06-12T12:09:15.368Z,39.89
2018-06-12T12:11:41.651Z,39.61
2018-06-12T12:14:07.947Z,39.31
2018-06-12T12:16:34.246Z,39.29
2018-06-12T12:19:00.581Z,39.85
2018-06-12T12:21:26.867Z,39.36
2018-06-12T12:23:53.170Z,38.95
2018-06-12T12:26:19.471Z,38.57
2018-06-12T12:28:45.832Z,39.28
2018-06-12T12:31:12.064Z,39.18
2018-06-12T12:33:38.358Z,39.79
2018-06-12T12:36:04.653Z,38.77
2018-06-12T12:38:30.950Z,39.36
2018-06-12T12:40:57.249Z,38.67
2018-06-12T12:43:23.534Z,38.86
2018-06-12T12:45:49.956Z,39.69
2018-06-12T12:48:16.333Z,39.56
2018-06-12T12:50:42.577Z,39.57
2018-06-12T12:53:08.947Z,38.95
2018-06-12T12:55:35.162Z,39.15
2018-06-12T12:58:01.473Z,39.10
2018-06-12T13:00:27.765Z,39.23
2018-06-12T13:02:54.055Z,39.39
2018-06-12T13:05:20.346Z,38.64
2018-06-12T13:07:46.700Z,39.01
2018-06-12T13:10:13.028Z,39.26
2018-06-12T13:12:39.314Z,38.62
2018-06-12T13:15:05.645Z,38.88
2018-06-12T13:17:31.937Z,38.53
2018-06-12T13:19:58.231Z,38.46
2018-06-12T13:22:24.529Z,38.12
2018-06-12T13:24:50.842Z,37.72
2018-06-12T13:27:17.178Z,36.16
2018-06-12T13:29:43.469Z,35.92
2018-06-12T13:32:09.765Z,37.19
2018-06-12T13:34:36.062Z,38.01
2018-06-12T13:37:02.355Z,38.58
2018-06-12T13:39:28.647Z,39.35
2018-06-12T13:41:54.947Z,38.68
2018-06-12T13:44:21.257Z,38.76
2018-06-12T13:46:47.568Z,39.13
2018-06-12T13:49:13.866Z,38.82
2018-06-12T13:51:40.159Z,38.85
2018-06-12T13:54:06.449Z,39.45
2018-06-12T13:56:32.791Z,38.45
2018-06-12T13:58:59.031Z,39.44
2018-06-12T14:01:25.328Z,39.43
2018-06-12T14:03:51.629Z,37.92
2018-06-12T14:06:17.916Z,38.31
2018-06-12T14:08:44.198Z,38.52
2018-06-12T14:11:10.503Z,39.38
2018-06-12T14:13:37.051Z,39.82
2018-06-12T14:16:03.105Z,39.37
2018-06-12T14:18:29.392Z,39.05
2018-06-12T14:20:55.694Z,39.38
2018-06-12T14:23:21.989Z,40.17
2018-06-12T14:25:48.321Z,39.93
2018-06-12T14:28:14.635Z,39.87
2018-06-12T14:30:40.937Z,40.41
2018-06-12T14:33:07.273Z,42.12
2018-06-12T14:35:33.582Z,42.52
2018-06-12T14:37:59.879Z,41.36
2018-06-12T14:40:26.194Z,40.73
2018-06-12T14:42:52.489Z,42.44
2018-06-12T14:45:18.777Z,42.03
2018-06-12T14:47:45.071Z,42.61
2018-06-12T14:50:11.414Z,42.51
2018-06-12T14:52:37.728Z,43.12
2018-06-12T14:55:04.045Z,43.74
2018-06-12T14:57:30.341Z,43.21
2018-06-12T14:59:56.634Z,43.21
2018-06-12T15:02:22.929Z,43.24
2018-06-12T15:04:49.225Z,44.13
2018-06-12T15:07:15.520Z,44.58
2018-06-12T15:09:41.822Z,44.55
2018-06-12T15:12:08.112Z,43.35
2018-06-12T15:14:34.403Z,42.52
2018-06-12T15:17:00.732Z,42.93
2018-06-12T15:19:27.069Z,43.28
2018-06-12T15:21:53.363Z,43.67
2018-06-12T15:24:19.658Z,43.52
2018-06-12T15:26:45.973Z,43.48
2018-06-12T15:29:12.270Z,43.38
2018-06-12T15:31:38.608Z,43.46
2018-06-12T15:34:04.897Z,43.57
2018-06-12T15:36:31.188Z,43.43
2018-06-12T15:38:57.589Z,43.38
2018-06-12T15:41:23.789Z,43.58
2018-06-12T15:43:50.396Z,43.85
2018-06-12T15:46:16.703Z,43.68
2018-06-12T15:48:42.990Z,44.02
2018-06-12T15:51:09.290Z,43.99
2018-06-12T15:53:35.617Z,43.96
2018-06-12T15:56:01.875Z,44.01
2018-06-12T15:58:28.173Z,44.10
2018-06-12T16:00:54.463Z,43.52
2018-06-12T16:03:20.751Z,44.05
2018-06-12T16:05:47.038Z,43.89
2018-06-12T16:08:13.337Z,44.01
2018-06-12T16:10:39.633Z,43.91
2018-06-12T16:13:05.939Z,44.07
2018-06-12T16:15:32.239Z,43.98
2018-06-12T16:17:58.527Z,44.00
2018-06-12T16:20:24.821Z,43.87
2018-06-12T16:22:51.122Z,44.09
2018-06-12T16:25:17.428Z,43.92
2018-06-12T16:27:43.716Z,41.78
2018-06-12T16:30:10.023Z,42.29
2018-06-12T16:32:36.314Z,42.48
2018-06-12T16:35:02.615Z,43.45
2018-06-12T16:37:29.065Z,43.35
2018-06-12T16:39:55.352Z,43.30
2018-06-12T16:42:21.651Z,43.79
2018-06-12T16:44:47.944Z,42.56
2018-06-12T16:47:14.231Z,43.76
2018-06-12T16:49:40.528Z,50.59
2018-06-12T16:52:06.826Z,52.53
2018-06-12T16:54:33.160Z,50.40
2018-06-12T16:56:59.450Z,51.04
2018-06-12T16:59:25.745Z,50.93
2018-06-12T17:01:52.042Z,53.87
2018-06-12T17:04:18.330Z,56.52
2018-06-12T17:06:44.632Z,48.67
2018-06-12T17:09:10.918Z,53.62
2018-06-12T17:11:37.220Z,55.77
2018-06-12T17:14:03.516Z,56.27
2018-06-12T17:16:29.867Z,53.53
2018-06-12T17:18:56.105Z,54.58
2018-06-12T17:21:22.400Z,53.17
2018-06-12T17:23:48.699Z,48.33
2018-06-12T17:26:14.991Z,53.17
2018-06-12T17:28:41.287Z,53.31
2018-06-12T17:31:07.571Z,49.90
2018-06-12T17:33:33.900Z,51.51
2018-06-12T17:36:00.232Z,51.46
2018-06-12T17:38:26.527Z,53.60
2018-06-12T17:40:52.845Z,52.20
2018-06-12T17:43:19.139Z,55.52
2018-06-12T17:45:45.423Z,55.70
2018-06-12T17:48:11.723Z,55.26
2018-06-12T17:50:38.014Z,58.03
2018-06-12T17:53:04.309Z,58.50
2018-06-12T17:55:30.595Z,55.07
2018-06-12T17:57:56.891Z,57.11
2018-06-12T18:00:23.190Z,57.10
2018-06-12T18:02:49.484Z,55.49
2018-06-12T18:05:15.783Z,56.02
2018-06-12T18:07:42.072Z,56.03
2018-06-12T18:10:08.374Z,57.42
2018-06-12T18:12:34.652Z,53.02
2018-06-12T18:15:00.946Z,53.14
2018-06-12T18:17:27.231Z,57.19
2018-06-12T18:19:53.533Z,57.40
2018-06-12T18:22:19.821Z,57.69
2018-06-12T18:24:46.197Z,57.18
2018-06-12T18:27:12.414Z,56.82
2018-06-12T18:29:38.710Z,55.43
2018-06-12T18:32:05.000Z,56.24
2018-06-12T18:34:31.287Z,54.85
2018-06-12T18:36:57.598Z,54.82
2018-06-12T18:39:23.887Z,53.89
2018-06-12T18:41:50.180Z,55.35
2018-06-12T18:44:16.508Z,55.85
2018-06-12T18:46:42.810Z,55.65
2018-06-12T18:49:09.110Z,55.32
2018-06-12T18:51:35.407Z,55.03
2018-06-12T18:54:01.697Z,55.36
2018-06-12T18:56:27.988Z,57.43
2018-06-12T18:58:54.318Z,55.63
2018-06-12T19:01:21.016Z,56.62
2018-06-12T19:03:47.310Z,55.98
2018-06-12T19:06:13.598Z,56.33
2018-06-12T19:08:39.887Z,57.09
2018-06-12T19:11:06.214Z,55.60
2018-06-12T19:13:32.557Z,58.54
2018-06-12T19:15:58.805Z,59.41
2018-06-12T19:18:25.130Z,58.69
2018-06-12T19:20:51.453Z,57.65
2018-06-12T19:23:17.743Z,55.57
2018-06-12T19:25:44.043Z,57.19
2018-06-12T19:28:10.365Z,55.75
2018-06-12T19:30:36.623Z,55.98
2018-06-12T19:33:02.921Z,56.14
2018-06-12T19:35:29.212Z,56.27
2018-06-12T19:37:55.511Z,56.00
2018-06-12T19:40:21.798Z,56.83
2018-06-12T19:42:48.127Z,56.66
2018-06-12T19:45:14.428Z,56.41
2018-06-12T19:47:40.733Z,56.86
2018-06-12T19:50:07.022Z,56.80
2018-06-12T19:52:33.311Z,56.90
2018-06-12T19:54:59.606Z,56.43
2018-06-12T19:57:25.894Z,56.57
2018-06-12T19:59:52.190Z,56.26
2018-06-12T20:02:18.485Z,56.30
2018-06-12T20:04:44.830Z,58.16
2018-06-12T20:07:11.125Z,57.24
2018-06-12T20:09:37.417Z,55.97
2018-06-12T20:12:03.761Z,56.71
2018-06-12T20:14:30.047Z,57.01
2018-06-12T20:16:56.331Z,57.50
2018-06-12T20:19:22.682Z,56.89
2018-06-12T20:21:48.977Z,56.73
2018-06-12T20:24:15.264Z,55.20
2018-06-12T20:26:41.560Z,55.14
2018-06-12T20:29:07.847Z,55.04
2018-06-12T20:31:34.134Z,55.15
2018-06-12T20:34:00.429Z,54.79
2018-06-12T20:36:26.767Z,54.73
2018-06-12T20:38:53.030Z,55.57
2018-06-12T20:41:19.320Z,55.69
2018-06-12T20:43:45.609Z,55.45
2018-06-12T20:46:11.904Z,56.22
2018-06-12T20:48:38.195Z,57.01
2018-06-12T20:51:04.495Z,56.04
2018-06-12T20:53:30.782Z,55.80
2018-06-12T20:55:57.077Z,56.30
2018-06-12T20:58:23.362Z,56.36
2018-06-12T21:00:49.652Z,56.61
2018-06-12T21:03:15.944Z,57.56
2018-06-12T21:05:42.242Z,57.33
2018-06-12T21:08:08.531Z,57.16
2018-06-12T21:10:34.828Z,58.01
2018-06-12T21:13:01.160Z,57.59
2018-06-12T21:15:27.454Z,57.29
2018-06-12T21:17:53.745Z,57.45
2018-06-12T21:20:20.051Z,57.38
2018-06-12T21:22:46.344Z,57.62
2018-06-12T21:25:12.671Z,56.91
2018-06-12T21:27:38.970Z,57.17
2018-06-12T21:30:05.303Z,57.53
2018-06-12T21:32:31.601Z,57.91
2018-06-12T21:34:57.896Z,57.95
2018-06-12T21:37:24.196Z,57.34
2018-06-12T21:39:50.505Z,57.44
2018-06-12T21:42:16.787Z,57.74
2018-06-12T21:44:43.086Z,58.01
2018-06-12T21:47:09.862Z,57.51
2018-06-12T21:49:36.163Z,56.73
2018-06-12T21:52:02.458Z,57.07
2018-06-12T21:54:28.765Z,56.29
2018-06-12T21:56:55.059Z,56.76
2018-06-12T21:59:21.353Z,56.80
2018-06-12T22:01:47.645Z,56.93
2018-06-12T22:04:13.945Z,55.91
2018-06-12T22:06:40.277Z,55.95
2018-06-12T22:09:06.573Z,56.59
2018-06-12T22:11:32.876Z,56.79
2018-06-12T22:13:59.158Z,56.92
2018-06-12T22:16:25.449Z,57.62
2018-06-12T22:18:51.782Z,56.91
2018-06-12T22:21:18.078Z,57.33
2018-06-12T22:23:44.464Z,57.58
2018-06-12T22:26:10.757Z,57.48
2018-06-12T22:28:37.095Z,57.18
2018-06-12T22:31:03.365Z,57.11
2018-06-12T22:33:29.651Z,57.14
2018-06-12T22:35:55.953Z,57.12
2018-06-12T22:38:22.246Z,57.22
2018-06-12T22:40:48.540Z,57.36
2018-06-12T22:43:14.831Z,57.09
2018-06-12T22:45:41.182Z,57.22
2018-06-12T22:48:07.456Z,57.86
2018-06-12T22:50:33.754Z,58.05
2018-06-12T22:53:00.056Z,58.49
2018-06-12T22:55:26.350Z,58.71
2018-06-12T22:57:52.653Z,59.26
2018-06-12T23:00:18.941Z,58.96
2018-06-12T23:02:45.246Z,59.21
2018-06-12T23:05:11.589Z,59.21
2018-06-12T23:07:37.879Z,59.72
2018-06-12T23:10:04.180Z,59.78
2018-06-12T23:12:30.472Z,59.13
2018-06-12T23:14:56.803Z,59.30
2018-06-12T23:17:23.117Z,59.36
2018-06-12T23:19:49.442Z,60.04
2018-06-12T23:22:15.733Z,59.07
2018-06-12T23:24:42.023Z,59.39
2018-06-12T23:27:08.361Z,59.41
2018-06-12T23:29:34.643Z,59.02
2018-06-12T23:32:00.932Z,59.60
2018-06-12T23:34:27.215Z,59.60
2018-06-12T23:36:53.540Z,59.53
2018-06-12T23:39:19.911Z,59.49
2018-06-12T23:41:46.126Z,59.42
2018-06-12T23:44:12.434Z,59.29
2018-06-12T23:46:38.760Z,59.68
2018-06-12T23:49:05.059Z,59.59
2018-06-12T23:51:31.354Z,59.80
2018-06-12T23:53:57.657Z,59.60
2018-06-12T23:56:23.971Z,59.67
2018-06-12T23:58:50.314Z,59.90
